aviador You're here:

KCDI Decoded Metar

in
Report Time2018-02-22 06:35:00
UTC Time2018-02-22 06:46:39
Flight Rules vfr VFR
Wind020° at 05 kt
W.Decomp.*RWY 04: 4.7 kt HW 1.7 kt LCW
W.Rank020° ranks 14
Current wind is above 020° avg. (4.9)
Visibility9999 m
Phenomena:N/A
Clouds:Scattered 030 Hf
Scattered 037 Hf
Overcast 055 Hf
Expected CloudBase > 1,200 ft AGL from Temp-Dew spread
Ceiling5,500 ft
Temp05°C
Dew Point02°C (81% RH)
AAT1.5°C
QNH1033 hPa
Raw Report
METAR KCDI 220635Z AUTO 02005KT 10SM SCT030 SCT037 OVC055 05/02 A3049
RMK AO2 T00450020=

Extra information for KCDI:More info

Social comments